Flight Track Log - Related Links

Times and Time Zones

All times are in EDT time to prevent confusion due to time zone crossing. See the EJA941 flight status page for this flight to view local times or setup timezone preferences in your user account.


Time Position Orientation Groundspeed Altitude Reporting Facility
EDT Latitude Longitude Course Direction KTS MPH feet Rate Location/Type
Tue 08:36:48 PM 42.3667 -70.9667 90° East 180 207 900  Level KA90
Tue 08:37:24 PM 42.3667 -70.9333 90° East 199 229 3,100 2,563 Climbing KA90
Tue 08:38:24 PM 42.3833 -70.8500 75° East 274 315 5,000 2,550 Climbing KA90
Tue 08:39:24 PM 42.3333 -70.7833 135° Southeast 269 310 8,200 3,033 Climbing KA90
Tue 08:39:55 PM 42.2922 -70.7672 164° South 276 318 9,600 1,978 Climbing Boston Center
Tue 08:40:55 PM 42.2408 -70.8192 217° Southwest 245 282 11,200 1,700 Climbing Boston Center
Tue 08:41:55 PM 42.2156 -70.9458 255° West 268 308 13,000 2,450 Climbing Boston Center
Tue 08:42:55 PM 42.1961 -71.0586 257° West 326 375 16,100 2,864 Climbing Boston Center
Tue 08:44:07 PM 42.1767 -71.1906 259° West 321 369 19,300 2,273 Climbing Boston Center
Tue 08:45:07 PM 42.1572 -71.3228 259° West 310 357 21,100 1,500 Climbing Boston Center
Tue 08:46:07 PM 42.1397 -71.4406 259° West 310 357 22,300 1,250 Climbing Boston Center
Tue 08:47:07 PM 42.1136 -71.5614 254° West 324 373 23,600 1,200 Climbing Boston Center
Tue 08:48:07 PM 42.0956 -71.6819 259° West 329 379 24,700 1,050 Climbing Boston Center
Tue 08:49:07 PM 42.0736 -71.8108 257° West 347 399 25,700 1,000 Climbing Boston Center
Tue 08:50:07 PM 42.0556 -71.9453 260° West 359 413 26,700 1,000 Climbing Boston Center
Tue 08:51:07 PM 42.0308 -72.0767 256° West 365 420 27,700 1,000 Climbing Boston Center
Tue 08:52:07 PM 41.9769 -72.1917 238° Southwest 365 420 28,700 800 Climbing Boston Center
Tue 08:53:07 PM 41.9333 -72.2839 238° Southwest 365 420 29,300 900 Climbing Boston Center
Tue 08:54:07 PM 41.8628 -72.4206 235° Southwest 376 433 30,500 1,100 Climbing Boston Center
Tue 08:55:07 PM 41.8064 -72.5403 238° Southwest 381 438 31,500 1,000 Climbing Boston Center
Tue 08:56:07 PM 41.7458 -72.6600 236° Southwest 381 438 32,500 900 Climbing Boston Center
Tue 08:57:07 PM 41.6914 -72.7681 236° Southwest 388 447 33,300 1,150 Climbing Boston Center
Tue 08:58:07 PM 41.6306 -72.8928 237° Southwest 400 460 34,800 1,450 Climbing Boston Center
Tue 08:59:07 PM 41.5653 -73.0228 236° Southwest 405 466 36,200 1,534 Climbing Boston Center
Tue 09:01:03 PM 41.4458 -73.2594 236° Southwest 405 466 39,300 1,310 Climbing New York Center
Tue 09:02:01 PM 41.3847 -73.3869 237° Southwest 410 472 40,000 350 Climbing New York Center
Tue 09:03:03 PM 41.3194 -73.5117 235° Southwest 410 472 40,000  Level New York Center
Tue 09:04:03 PM 41.2517 -73.6383 235° Southwest 415 478 40,000  Level New York Center
Tue 09:05:02 PM 41.1758 -73.7592 230° Southwest 422 486 40,000  Level New York Center
Tue 09:06:02 PM 41.0978 -73.8797 229° Southwest 433 498 40,000  Level New York Center
Tue 09:07:03 PM 41.0239 -73.9972 230° Southwest 433 498 40,000  Level New York Center
Tue 09:08:03 PM 40.9497 -74.1119 229° Southwest 428 493 40,000  Level New York Center
Tue 09:09:00 PM 40.8650 -74.2339 227° Southwest 423 487 40,000  Level New York Center
Tue 09:10:01 PM 40.7906 -74.3533 231° Southwest 423 487 40,000  Level New York Center
Tue 09:11:02 PM 40.7119 -74.4697 228° Southwest 428 493 40,000  Level New York Center
Tue 09:12:02 PM 40.6353 -74.5914 230° Southwest 433 498 40,000  Level New York Center
Tue 09:13:01 PM 40.5561 -74.7125 229° Southwest 439 505 40,000  Level New York Center
Tue 09:14:01 PM 40.4772 -74.8308 229° Southwest 439 505 40,000  Level New York Center
Tue 09:15:01 PM 40.3978 -74.9542 230° Southwest 444 511 40,000  Level New York Center
Tue 09:16:03 PM 40.3186 -75.0747 229° Southwest 444 511 40,000  Level New York Center
Tue 09:17:01 PM 40.2411 -75.1950 230° Southwest 444 511 40,000  Level New York Center
Tue 09:18:01 PM 40.1681 -75.3072 230° Southwest 444 511 40,000  Level New York Center
Tue 09:19:02 PM 40.0864 -75.4239 228° Southwest 444 511 40,000  Level New York Center
Tue 09:20:03 PM 40.0064 -75.5458 229° Southwest 444 511 40,000  Level New York Center
Tue 09:21:03 PM 39.9286 -75.6653 230° Southwest 439 505 40,000  Level New York Center
Tue 09:22:00 PM 39.8506 -75.7842 229° Southwest 439 505 40,000  Level New York Center
Tue 09:23:01 PM 39.7722 -75.9108 231° Southwest 445 512 40,000  Level New York Center
Tue 09:24:01 PM 39.6961 -76.0294 230° Southwest 450 518 40,000  Level New York Center
Tue 09:25:11 PM 39.6019 -76.1706 229° Southwest 430 495 40,000  Level Washington Center
Tue 09:26:13 PM 39.5303 -76.2939 233° Southwest 430 495 40,000  Level Washington Center
Tue 09:27:11 PM 39.4836 -76.4358 247° West 425 489 40,000  Level Washington Center
Tue 09:28:12 PM 39.4367 -76.5803 247° West 430 495 40,000  Level Washington Center
Tue 09:29:13 PM 39.3894 -76.7222 247° West 435 501 40,000 -655 Level Washington Center
Tue 09:30:11 PM 39.3050 -76.8361 226° Southwest 435 501 38,700 -1,424 Descending Washington Center
Tue 09:31:11 PM 39.2122 -76.9444 222° Southwest 441 507 37,200 -1,463 Descending Washington Center
Tue 09:32:14 PM 39.1194 -77.0444 220° Southwest 441 507 35,700 -1,300 Descending Washington Center
Tue 09:33:11 PM 39.0283 -77.1494 222° Southwest 446 513 34,600 -1,231 Descending Washington Center
Tue 09:34:11 PM 38.9353 -77.2514 220° Southwest 446 513 33,300 -1,289 Descending Washington Center
Tue 09:35:12 PM 38.8358 -77.3611 221° Southwest 454 522 32,000 -1,537 Descending Washington Center
Tue 09:36:12 PM 38.7275 -77.4836 221° Southwest 471 542 30,200 -992 Descending Washington Center
Tue 09:37:13 PM 38.6256 -77.5953 221° Southwest 482 555 30,000 -101 Descending Washington Center
Tue 09:38:11 PM 38.5236 -77.7067 221° Southwest 487 560 30,000  Level Washington Center
Tue 09:39:13 PM 38.4236 -77.8178 221° Southwest 487 560 30,000  Level Washington Center
Tue 09:40:11 PM 38.3258 -77.9233 220° Southwest 487 560 30,000  Level Washington Center
Tue 09:41:12 PM 38.2400 -78.0478 229° Southwest 477 549 30,000  Level Washington Center
Tue 09:42:12 PM 38.1600 -78.1797 232° Southwest 477 549 30,000  Level Washington Center
Tue 09:43:13 PM 38.0819 -78.3117 233° Southwest 477 549 30,000  Level Washington Center
Tue 09:44:13 PM 38.0169 -78.4200 233° Southwest 477 549 30,000  Level Washington Center
Tue 09:45:11 PM 37.9033 -78.5472 221° Southwest 464 534 30,000  Level Washington Center
Tue 09:46:12 PM 37.7964 -78.6483 217° Southwest 473 544 30,000 -344 Level Washington Center
Tue 09:47:13 PM 37.6917 -78.7517 218° Southwest 479 551 29,300 -958 Descending Washington Center
Tue 09:48:11 PM 37.5844 -78.8544 217° Southwest 485 558 28,100 -706 Descending Washington Center
Tue 09:49:12 PM 37.4903 -78.9447 217° Southwest 485 558 27,900 -689 Descending Washington Center
Tue 09:50:13 PM 37.3872 -79.0447 218° Southwest 480 552 26,700 -1,339 Descending Washington Center
Tue 09:51:13 PM 37.2800 -79.1444 217° Southwest 480 552 25,200 -1,169 Descending Washington Center
Tue 09:52:11 PM 37.1750 -79.2436 217° Southwest 480 552 24,400 -1,261 Descending Washington Center
Tue 09:53:12 PM 37.0717 -79.3431 218° Southwest 480 552 22,700 -1,850 Descending Washington Center
Tue 09:54:11 PM 36.9747 -79.4369 218° Southwest 470 541 20,700 -2,874 Descending Washington Center
Tue 09:55:11 PM 36.8694 -79.5356 217° Southwest 446 513 17,000 -3,421 Descending Washington Center
Tue 09:56:12 PM 36.7789 -79.6219 217° Southwest 434 499 13,800 -3,148 Descending Washington Center
Tue 09:58:00 PM 36.6185 -79.7481 219° Southwest  Level FlightAware Approximate

Login

Don't have an account? Register now (free) for customized features, flight alerts, and more!